Sanator, South Dakota
Current Conditions -  °F | °C
As of 7:53 AM on Thursday 30 Oct 2014 (Local Time) from KCUT Reporting Station
Clear Clear  
Wind Chill: 37°   Ceiling: Unl
Heat Index: 37°   Visibility: 10mi
Dew Point: 28°   Wind: 3mph
Humidity: 70%   Direction: 290°WNW
Pressure: 30.28"   Gusts: NA
Location:  43.6653°N, 103.766°W
Report Text: KCUT 301353Z AUTO 29003KT 10SM CLR 03/M02 A3028 RMK AO2 SLP246 T00281022
Loading
Personal Weather Stations






























Interactive Weather Map
Tropical Storm Tracking
New forecast layout! Learn more

10-Day Weather Forecast

Advertisements
Track Severe Weather on mobile